Time;durP1;ratioP1;P1;durP2;ratioP2;P2;SDS_P1;SDS_P2;PMS_P1;PMS_P2;Temp;Humidity;BMP_temperature;BMP_pressure;BME280_temperature;BME280_humidity;BME280_pressure;Samples;Min_cycle;Max_cycle;Signal;HPM_P1;HPM_P2
2023/12/04 00:00:27;;;;;;;16.58;7.93;;;0.20;99.90;;;;;;5026803;28;20056;-66
2023/12/04 00:02:53;;;;;;;10.43;5.88;;;0.20;99.90;;;;;;5011148;28;20561;-66
2023/12/04 00:05:19;;;;;;;13.18;6.70;;;0.20;99.90;;;;;;5011166;28;20526;-66
2023/12/04 00:07:44;;;;;;;13.20;5.82;;;0.20;99.90;;;;;;5022120;28;20591;-66
2023/12/04 00:10:10;;;;;;;13.32;7.45;;;0.20;99.90;;;;;;5005895;28;20411;-66
2023/12/04 00:12:36;;;;;;;14.77;8.23;;;0.10;99.90;;;;;;5021693;28;20034;-66
2023/12/04 00:15:02;;;;;;;12.82;7.05;;;0.20;99.90;;;;;;5018975;28;20130;-66
2023/12/04 00:17:27;;;;;;;14.68;6.63;;;0.10;99.90;;;;;;5013005;28;20594;-66
2023/12/04 00:19:53;;;;;;;13.30;6.45;;;0.20;99.90;;;;;;5000815;28;20483;-66
2023/12/04 00:22:19;;;;;;;11.10;6.07;;;0.10;99.90;;;;;;5016631;28;20075;-66
2023/12/04 00:24:45;;;;;;;12.88;6.72;;;0.20;99.90;;;;;;5044458;28;20433;-66
2023/12/04 00:27:10;;;;;;;7.78;4.60;;;0.10;99.90;;;;;;5028151;28;20037;-66
2023/12/04 00:29:36;;;;;;;8.40;4.85;;;0.10;99.90;;;;;;5018391;28;20064;-66
2023/12/04 00:32:02;;;;;;;8.23;4.47;;;0.10;99.90;;;;;;5004073;28;20128;-66
2023/12/04 00:34:28;;;;;;;8.13;3.55;;;0.10;99.90;;;;;;4996563;28;20415;-66
2023/12/04 00:36:53;;;;;;;10.48;5.43;;;0.10;99.90;;;;;;5008921;28;20041;-66
2023/12/04 00:39:19;;;;;;;13.00;7.10;;;0.10;99.90;;;;;;5028110;28;20463;-66
2023/12/04 00:41:46;;;;;;;9.93;6.15;;;0.10;99.90;;;;;;5007010;28;20049;-66
2023/12/04 00:44:12;;;;;;;15.15;7.07;;;0.10;99.90;;;;;;5028100;28;20608;-66
2023/12/04 00:46:37;;;;;;;5.47;3.40;;;0.10;99.90;;;;;;5011876;28;20128;-66
2023/12/04 00:49:03;;;;;;;10.43;4.38;;;0.10;99.90;;;;;;5013876;28;20129;-66
2023/12/04 00:51:29;;;;;;;7.32;4.28;;;0.10;99.90;;;;;;5006763;28;20053;-66
2023/12/04 00:53:54;;;;;;;11.52;6.20;;;0.10;99.90;;;;;;5030540;28;20044;-66
2023/12/04 00:56:20;;;;;;;7.13;4.50;;;0.10;99.90;;;;;;5028608;28;20065;-65
2023/12/04 00:58:46;;;;;;;9.30;4.93;;;0.10;99.90;;;;;;5044182;28;20474;-66
2023/12/04 01:01:12;;;;;;;6.43;3.90;;;0.10;99.90;;;;;;5039259;28;20057;-66
2023/12/04 01:03:38;;;;;;;12.05;6.85;;;0.10;99.90;;;;;;4996448;28;20080;-66
2023/12/04 01:06:04;;;;;;;6.45;3.65;;;0.10;99.90;;;;;;5000731;28;20073;-66
2023/12/04 01:08:30;;;;;;;7.18;3.30;;;0.10;99.90;;;;;;5027450;28;20055;-66
2023/12/04 01:10:55;;;;;;;11.05;5.38;;;0.10;99.90;;;;;;5027977;28;20049;-66
2023/12/04 01:13:21;;;;;;;10.32;5.05;;;0.10;99.90;;;;;;5000955;28;20107;-66
2023/12/04 01:15:48;;;;;;;4.28;2.78;;;0.10;99.90;;;;;;5009871;28;20084;-66
2023/12/04 01:18:14;;;;;;;7.00;4.13;;;0.10;99.90;;;;;;5027057;28;20132;-66
2023/12/04 01:20:41;;;;;;;10.10;6.00;;;0.10;99.90;;;;;;5027663;28;20129;-66
2023/12/04 01:23:06;;;;;;;12.20;7.35;;;0.20;99.90;;;;;;5006857;28;20116;-66
2023/12/04 01:25:32;;;;;;;3.95;2.53;;;0.10;99.90;;;;;;5009857;28;20460;-66
2023/12/04 01:27:58;;;;;;;7.93;4.72;;;0.10;99.90;;;;;;5009346;28;20115;-66
2023/12/04 01:30:23;;;;;;;14.43;5.80;;;0.10;99.90;;;;;;5009913;28;20045;-66
2023/12/04 01:32:49;;;;;;;5.38;2.58;;;0.10;99.90;;;;;;5005807;28;20129;-66
2023/12/04 01:35:15;;;;;;;9.98;5.05;;;0.10;99.90;;;;;;4992608;28;20403;-66
2023/12/04 01:37:41;;;;;;;6.75;3.13;;;0.00;99.90;;;;;;5008054;28;20077;-66
2023/12/04 01:40:07;;;;;;;6.38;4.50;;;0.10;99.90;;;;;;5007999;28;20495;-66
2023/12/04 01:42:33;;;;;;;8.35;3.90;;;0.10;99.90;;;;;;5027826;28;20091;-66
2023/12/04 01:44:59;;;;;;;12.57;6.97;;;0.10;99.90;;;;;;5005177;28;20426;-66
2023/12/04 01:47:25;;;;;;;10.98;6.47;;;0.10;99.90;;;;;;5021905;28;20499;-66
2023/12/04 01:49:51;;;;;;;5.60;4.13;;;0.10;99.90;;;;;;5007918;28;20049;-66
2023/12/04 01:52:17;;;;;;;10.60;6.18;;;0.10;99.90;;;;;;5009347;28;20550;-66
2023/12/04 01:54:43;;;;;;;4.55;2.55;;;0.00;99.90;;;;;;5009417;28;20064;-66
2023/12/04 01:57:10;;;;;;;8.80;5.50;;;0.10;99.90;;;;;;5019625;28;20064;-66
2023/12/04 01:59:36;;;;;;;4.63;1.95;;;0.10;99.90;;;;;;5008471;28;20041;-66
2023/12/04 02:02:02;;;;;;;12.50;5.35;;;0.00;99.90;;;;;;5031401;28;20091;-66
2023/12/04 02:04:28;;;;;;;9.57;5.50;;;0.00;99.90;;;;;;5022664;28;20691;-66
2023/12/04 02:06:54;;;;;;;7.13;5.22;;;0.10;99.90;;;;;;5025343;28;20478;-66
2023/12/04 02:09:20;;;;;;;10.52;6.10;;;0.00;99.90;;;;;;4992016;28;20049;-66
2023/12/04 02:11:45;;;;;;;12.63;7.00;;;0.10;99.90;;;;;;5026596;28;20049;-66
2023/12/04 02:14:11;;;;;;;13.88;6.47;;;0.10;99.90;;;;;;4990364;28;20560;-66
2023/12/04 02:16:40;;;;;;;16.38;7.00;;;0.00;99.90;;;;;;5002790;28;20044;-66
2023/12/04 02:19:13;;;;;;;10.23;6.07;;;0.00;99.90;;;;;;5005696;28;20081;-66
2023/12/04 02:21:39;;;;;;;8.18;5.45;;;0.10;99.90;;;;;;4988055;28;20503;-66
2023/12/04 02:24:05;;;;;;;12.38;6.57;;;0.10;99.90;;;;;;5008592;28;20057;-66
2023/12/04 02:26:37;;;;;;;10.07;5.30;;;0.10;99.90;;;;;;4988270;28;20103;-66
2023/12/04 02:29:11;;;;;;;13.65;6.32;;;0.00;99.90;;;;;;5026964;28;20045;-66
2023/12/04 02:31:39;;;;;;;7.90;5.22;;;0.00;99.90;;;;;;5007077;28;20045;-66
2023/12/04 02:34:06;;;;;;;7.82;5.03;;;0.00;99.90;;;;;;5008931;28;20041;-66
2023/12/04 02:36:34;;;;;;;9.13;4.78;;;0.00;99.90;;;;;;5007066;28;20124;-66
2023/12/04 02:39:00;;;;;;;12.90;6.82;;;-0.10;99.90;;;;;;5009514;28;20049;-66
2023/12/04 02:41:25;;;;;;;12.05;6.63;;;-0.10;99.90;;;;;;5007188;28;20504;-66
2023/12/04 02:43:51;;;;;;;10.63;6.65;;;0.00;99.90;;;;;;5009395;28;20042;-66
2023/12/04 02:46:17;;;;;;;9.65;5.88;;;0.00;99.90;;;;;;5018910;28;20089;-66
2023/12/04 02:48:43;;;;;;;11.90;6.72;;;0.00;99.90;;;;;;5008376;28;20041;-66
2023/12/04 02:51:10;;;;;;;9.23;5.07;;;0.00;99.90;;;;;;5007450;28;20114;-66
2023/12/04 02:53:35;;;;;;;11.35;6.18;;;-0.10;99.90;;;;;;5008277;28;20072;-66
2023/12/04 02:56:01;;;;;;;11.13;6.60;;;0.00;99.90;;;;;;5007603;28;20053;-66
2023/12/04 02:58:27;;;;;;;12.77;6.55;;;-0.10;99.90;;;;;;5007953;28;20064;-66
2023/12/04 03:00:52;;;;;;;12.98;7.10;;;-0.10;99.90;;;;;;5008375;28;20049;-66
2023/12/04 03:03:18;;;;;;;11.88;7.25;;;-0.10;99.90;;;;;;5007921;28;20057;-66
2023/12/04 03:05:44;;;;;;;11.15;6.13;;;0.00;99.90;;;;;;5025893;28;20046;-66
2023/12/04 03:08:09;;;;;;;9.13;5.28;;;-0.10;99.90;;;;;;5006632;28;20092;-66
2023/12/04 03:10:35;;;;;;;6.22;3.78;;;0.00;99.90;;;;;;5003705;28;20050;-66
2023/12/04 03:13:01;;;;;;;5.25;3.45;;;-0.10;99.90;;;;;;5008177;28;20041;-66
2023/12/04 03:15:28;;;;;;;11.85;6.25;;;0.00;99.90;;;;;;5021463;28;20096;-66
2023/12/04 03:17:55;;;;;;;8.82;4.93;;;-0.10;99.90;;;;;;5008646;28;20045;-66
2023/12/04 03:20:20;;;;;;;6.03;3.42;;;-0.10;99.90;;;;;;5007756;28;20138;-66
2023/12/04 03:22:46;;;;;;;11.85;5.97;;;-0.10;99.90;;;;;;5008405;28;20085;-66
2023/12/04 03:25:12;;;;;;;7.45;4.68;;;-0.10;99.90;;;;;;5009337;28;20057;-66
2023/12/04 03:27:38;;;;;;;7.82;4.60;;;0.00;99.90;;;;;;5007940;28;20068;-66
2023/12/04 03:30:04;;;;;;;9.20;5.35;;;-0.10;99.90;;;;;;5008627;28;20080;-66
2023/12/04 03:32:30;;;;;;;9.27;3.75;;;-0.10;99.90;;;;;;4991410;28;20084;-66
2023/12/04 03:34:56;;;;;;;3.30;2.00;;;-0.10;99.90;;;;;;5005805;28;20103;-66
2023/12/04 03:37:21;;;;;;;12.35;5.95;;;-0.10;99.90;;;;;;5022705;28;20495;-66
2023/12/04 03:39:47;;;;;;;8.63;5.43;;;0.00;99.90;;;;;;4992421;28;20077;-66
2023/12/04 03:42:13;;;;;;;10.63;6.65;;;-0.10;99.90;;;;;;5017860;28;20072;-66
2023/12/04 03:44:38;;;;;;;5.78;3.05;;;0.00;99.90;;;;;;5027790;28;20136;-66
2023/12/04 03:47:04;;;;;;;9.50;4.45;;;0.00;99.90;;;;;;5011938;28;20053;-66
2023/12/04 03:49:29;;;;;;;11.40;5.63;;;-0.10;99.90;;;;;;5010268;28;20517;-66
2023/12/04 03:51:55;;;;;;;6.57;3.28;;;-0.10;99.90;;;;;;5028023;28;20046;-66
2023/12/04 03:54:21;;;;;;;9.73;5.38;;;-0.10;99.90;;;;;;4995518;28;20055;-66
2023/12/04 03:56:49;;;;;;;3.33;1.17;;;0.00;99.90;;;;;;5018501;28;20397;-66
2023/12/04 03:59:15;;;;;;;1.60;1.33;;;0.00;99.90;;;;;;5012049;28;20050;-66
2023/12/04 04:01:41;;;;;;;17.05;9.15;;;0.00;99.90;;;;;;4991433;28;20463;-66
2023/12/04 04:04:07;;;;;;;16.48;8.32;;;0.00;99.90;;;;;;5029607;28;20041;-66
2023/12/04 04:06:32;;;;;;;12.57;6.93;;;0.00;99.90;;;;;;5006219;28;20053;-66
2023/12/04 04:08:58;;;;;;;12.88;6.72;;;0.10;99.90;;;;;;5028999;28;20057;-66
2023/12/04 04:11:24;;;;;;;14.38;7.40;;;0.00;99.90;;;;;;4994672;28;20131;-66
2023/12/04 04:13:49;;;;;;;11.82;5.85;;;0.10;99.90;;;;;;5011844;28;20542;-66
2023/12/04 04:16:16;;;;;;;12.18;6.72;;;0.10;99.90;;;;;;5009149;28;20045;-66
2023/12/04 04:18:43;;;;;;;9.15;5.13;;;0.00;99.90;;;;;;5002306;28;20053;-66
2023/12/04 04:21:09;;;;;;;8.98;5.68;;;0.00;99.90;;;;;;5026055;28;20133;-66
2023/12/04 04:23:35;;;;;;;16.10;8.60;;;0.00;99.90;;;;;;5006102;28;20466;-66
2023/12/04 04:26:02;;;;;;;14.30;7.70;;;0.10;99.90;;;;;;5008288;28;20554;-66
2023/12/04 04:28:28;;;;;;;11.48;5.45;;;0.10;99.90;;;;;;5011168;28;20072;-67
2023/12/04 04:30:53;;;;;;;15.45;7.18;;;0.10;99.90;;;;;;5027914;28;20045;-66
2023/12/04 04:33:19;;;;;;;8.63;4.93;;;0.00;99.90;;;;;;5009158;28;20137;-66
2023/12/04 04:35:45;;;;;;;9.23;5.13;;;0.00;99.90;;;;;;5007573;28;20049;-66
2023/12/04 04:38:11;;;;;;;14.55;6.07;;;0.00;99.90;;;;;;4995061;28;20053;-66
2023/12/04 04:40:37;;;;;;;13.70;6.60;;;0.10;99.90;;;;;;4993101;28;20484;-66
2023/12/04 04:43:03;;;;;;;11.18;6.13;;;0.20;99.90;;;;;;5005955;28;20050;-66
2023/12/04 04:45:29;;;;;;;9.13;5.55;;;0.10;99.90;;;;;;5010131;28;20440;-66
2023/12/04 04:47:55;;;;;;;15.75;7.75;;;0.10;99.90;;;;;;5011250;28;20535;-66
2023/12/04 04:50:20;;;;;;;6.55;4.38;;;0.20;99.90;;;;;;5010469;28;20080;-66
2023/12/04 04:52:46;;;;;;;2.42;1.67;;;0.20;99.90;;;;;;5004735;28;20057;-66
2023/12/04 04:55:12;;;;;;;9.32;5.57;;;0.20;99.90;;;;;;5006918;28;20104;-66
2023/12/04 04:57:38;;;;;;;9.30;5.15;;;0.10;99.90;;;;;;5009806;28;20561;-66
2023/12/04 05:00:05;;;;;;;4.22;2.88;;;0.20;99.90;;;;;;5028500;28;20045;-66
2023/12/04 05:02:31;;;;;;;8.23;4.65;;;0.20;99.90;;;;;;5027002;28;20495;-66
2023/12/04 05:04:56;;;;;;;14.77;6.03;;;0.10;99.90;;;;;;4988980;28;20054;-66
2023/12/04 05:07:22;;;;;;;14.63;7.05;;;0.10;99.90;;;;;;5009424;28;20038;-66
2023/12/04 05:09:48;;;;;;;11.93;6.82;;;0.20;99.90;;;;;;5009781;28;20041;-66
2023/12/04 05:12:13;;;;;;;16.08;7.65;;;0.10;99.90;;;;;;5025047;28;20088;-66
2023/12/04 05:14:39;;;;;;;9.88;6.28;;;0.20;99.90;;;;;;5003693;28;20487;-66
2023/12/04 05:17:05;;;;;;;21.80;8.60;;;0.20;99.90;;;;;;5026460;28;20033;-66
2023/12/04 05:19:30;;;;;;;8.40;4.80;;;0.10;99.90;;;;;;4994266;28;20407;-66
2023/12/04 05:21:56;;;;;;;10.73;5.43;;;0.20;99.90;;;;;;5008896;28;20053;-66
2023/12/04 05:24:22;;;;;;;15.32;8.43;;;0.10;99.90;;;;;;4994870;28;20049;-66
2023/12/04 05:26:47;;;;;;;8.90;5.47;;;0.10;99.90;;;;;;5009329;28;20042;-66
2023/12/04 05:29:13;;;;;;;16.10;8.00;;;0.10;99.90;;;;;;5010362;28;20468;-66
2023/12/04 05:31:39;;;;;;;11.57;6.97;;;0.10;99.90;;;;;;5003830;28;20109;-66
2023/12/04 05:34:04;;;;;;;12.32;6.68;;;0.20;99.90;;;;;;5027961;28;20041;-66
2023/12/04 05:36:30;;;;;;;13.73;5.40;;;0.20;99.90;;;;;;5006944;28;20388;-66
2023/12/04 05:38:56;;;;;;;16.92;8.02;;;0.10;99.90;;;;;;5009631;28;20050;-66
2023/12/04 05:41:22;;;;;;;20.50;8.63;;;0.10;99.90;;;;;;5007369;28;20045;-66
2023/12/04 05:43:47;;;;;;;18.23;8.23;;;0.10;99.90;;;;;;5020434;28;20499;-66
2023/12/04 05:46:13;;;;;;;16.38;7.93;;;0.20;99.90;;;;;;5020713;28;20095;-66
2023/12/04 05:48:39;;;;;;;7.85;4.50;;;0.20;99.90;;;;;;5018501;28;20507;-66
2023/12/04 05:51:05;;;;;;;6.57;3.40;;;0.10;99.90;;;;;;5003180;28;20496;-66
2023/12/04 05:53:31;;;;;;;16.77;8.40;;;0.20;99.90;;;;;;5002845;28;20050;-66
2023/12/04 05:55:57;;;;;;;5.53;3.25;;;0.10;99.90;;;;;;4992315;28;20565;-66
2023/12/04 05:58:22;;;;;;;5.75;3.28;;;0.20;99.90;;;;;;5025854;28;20125;-66
2023/12/04 06:00:48;;;;;;;9.70;5.47;;;0.10;99.90;;;;;;5009159;28;20045;-66
2023/12/04 06:03:14;;;;;;;12.35;6.72;;;0.20;99.90;;;;;;5026219;28;20053;-66
2023/12/04 06:05:39;;;;;;;9.77;5.72;;;0.10;99.90;;;;;;5008701;28;20538;-66
2023/12/04 06:08:05;;;;;;;15.93;6.88;;;0.10;99.90;;;;;;5007084;28;20124;-65
2023/12/04 06:10:31;;;;;;;10.55;6.88;;;0.10;99.90;;;;;;5026678;28;20079;-66
2023/12/04 06:12:57;;;;;;;9.45;6.82;;;0.00;99.90;;;;;;5025818;28;20046;-66
2023/12/04 06:15:23;;;;;;;11.98;6.38;;;0.10;99.90;;;;;;5009766;28;20513;-66
2023/12/04 06:17:49;;;;;;;10.20;6.65;;;0.00;99.90;;;;;;5006550;28;20514;-66
2023/12/04 06:20:14;;;;;;;11.35;6.32;;;0.00;99.90;;;;;;5009728;28;20080;-66
2023/12/04 06:22:42;;;;;;;15.65;7.00;;;0.10;99.90;;;;;;5007921;28;20068;-66
2023/12/04 06:25:08;;;;;;;14.25;6.28;;;0.10;99.90;;;;;;5009386;28;20136;-66
2023/12/04 06:27:34;;;;;;;9.40;4.90;;;0.10;99.90;;;;;;5007213;28;20049;-66
2023/12/04 06:30:00;;;;;;;14.88;6.15;;;0.10;99.90;;;;;;4992380;28;20080;-66
2023/12/04 06:32:27;;;;;;;9.68;5.72;;;0.10;99.90;;;;;;5000772;28;20092;-66
2023/12/04 06:34:55;;;;;;;13.13;7.38;;;0.10;99.90;;;;;;5020064;28;20547;-66
2023/12/04 06:37:21;;;;;;;11.60;4.45;;;0.20;99.90;;;;;;5008327;28;20047;-66
2023/12/04 06:39:49;;;;;;;12.52;6.43;;;0.20;99.90;;;;;;5017249;28;20056;-66
2023/12/04 06:42:15;;;;;;;11.75;6.45;;;0.30;99.90;;;;;;5026440;28;20060;-66
2023/12/04 06:44:41;;;;;;;10.13;6.05;;;0.30;99.90;;;;;;5026210;28;20053;-66
2023/12/04 06:47:09;;;;;;;9.93;5.65;;;0.20;99.90;;;;;;5026021;28;20053;-66
2023/12/04 06:49:34;;;;;;;10.40;4.65;;;0.30;99.90;;;;;;5025807;28;20050;-66
2023/12/04 06:52:00;;;;;;;10.32;4.78;;;0.30;99.90;;;;;;5008093;28;20054;-66
2023/12/04 06:54:26;;;;;;;14.57;7.35;;;0.30;99.90;;;;;;5025295;28;20084;-66
2023/12/04 06:56:52;;;;;;;12.30;5.97;;;0.30;99.90;;;;;;5025791;28;20537;-66
2023/12/04 06:59:19;;;;;;;11.32;5.28;;;0.30;99.90;;;;;;4999729;28;20148;-66
2023/12/04 07:01:44;;;;;;;9.18;5.45;;;0.30;99.90;;;;;;5019809;28;20121;-66
2023/12/04 07:04:10;;;;;;;8.00;4.20;;;0.40;99.90;;;;;;5007296;28;20140;-66
2023/12/04 07:06:37;;;;;;;9.13;5.03;;;0.30;99.90;;;;;;5008577;28;20512;-66
2023/12/04 07:09:03;;;;;;;12.98;6.65;;;0.40;99.90;;;;;;5026156;28;20041;-66
2023/12/04 07:11:29;;;;;;;6.20;4.40;;;0.30;99.90;;;;;;5012079;28;20045;-66
2023/12/04 07:13:55;;;;;;;5.68;3.42;;;0.40;99.90;;;;;;5029471;28;20565;-66
2023/12/04 07:16:21;;;;;;;6.25;2.78;;;0.40;99.90;;;;;;5030762;28;20042;-66
2023/12/04 07:18:46;;;;;;;3.38;1.92;;;0.40;99.90;;;;;;5019762;28;20448;-66
2023/12/04 07:21:12;;;;;;;9.60;5.32;;;0.30;99.90;;;;;;5008153;28;20563;-66
2023/12/04 07:23:38;;;;;;;12.80;6.30;;;0.40;99.90;;;;;;5029543;28;20450;-66
2023/12/04 07:26:04;;;;;;;4.10;2.50;;;0.40;99.90;;;;;;5029603;28;20060;-65
2023/12/04 07:28:30;;;;;;;6.07;3.60;;;0.40;99.90;;;;;;5022661;28;20470;-65
2023/12/04 07:30:56;;;;;;;6.70;3.42;;;0.40;99.90;;;;;;4996090;28;20041;-65
2023/12/04 07:33:21;;;;;;;8.70;5.25;;;0.40;99.90;;;;;;5025349;28;20033;-65
2023/12/04 07:35:47;;;;;;;4.60;3.25;;;0.40;99.90;;;;;;5030379;28;20080;-65
2023/12/04 07:38:13;;;;;;;6.78;4.70;;;0.40;99.90;;;;;;4991869;28;20050;-65
2023/12/04 07:40:38;;;;;;;9.40;5.22;;;0.30;99.90;;;;;;5017590;28;20105;-66
2023/12/04 07:43:04;;;;;;;18.02;7.40;;;0.40;99.90;;;;;;4995735;28;20053;-65
2023/12/04 07:45:30;;;;;;;12.30;7.10;;;0.40;99.90;;;;;;5014492;28;20055;-65
2023/12/04 07:47:56;;;;;;;14.10;7.70;;;0.30;99.90;;;;;;5010524;28;20080;-65
2023/12/04 07:50:21;;;;;;;13.45;5.57;;;0.40;99.90;;;;;;5028668;28;20079;-65
2023/12/04 07:52:47;;;;;;;14.98;8.05;;;0.40;99.90;;;;;;5008513;28;20450;-65
2023/12/04 07:55:13;;;;;;;15.55;7.60;;;0.40;99.90;;;;;;5016620;28;20069;-65
2023/12/04 07:57:39;;;;;;;11.63;5.65;;;0.40;99.90;;;;;;5026688;28;20062;-65
2023/12/04 08:00:05;;;;;;;9.27;6.00;;;0.30;99.90;;;;;;5011966;28;20061;-65
2023/12/04 08:02:31;;;;;;;12.73;6.18;;;0.40;99.90;;;;;;5019872;28;20053;-65
2023/12/04 08:04:57;;;;;;;22.13;6.65;;;0.40;99.90;;;;;;5011228;28;20419;-65
2023/12/04 08:07:22;;;;;;;13.25;6.72;;;0.40;99.90;;;;;;5030162;28;20044;-65
2023/12/04 08:09:48;;;;;;;16.98;7.80;;;0.40;99.90;;;;;;5002258;28;20045;-65
2023/12/04 08:12:14;;;;;;;12.13;6.97;;;0.30;99.90;;;;;;4993270;28;20045;-65
2023/12/04 08:14:39;;;;;;;13.50;5.90;;;0.30;99.90;;;;;;5009434;28;20053;-65
2023/12/04 08:17:05;;;;;;;9.75;5.70;;;0.30;99.90;;;;;;5010991;28;20092;-65
2023/12/04 08:19:31;;;;;;;15.95;6.45;;;0.40;99.90;;;;;;4993870;28;20454;-65
2023/12/04 08:21:58;;;;;;;12.60;6.68;;;0.30;99.90;;;;;;5026392;28;20525;-65
2023/12/04 08:24:24;;;;;;;11.25;5.68;;;0.40;99.90;;;;;;5010835;28;20046;-65
2023/12/04 08:26:50;;;;;;;7.70;4.53;;;0.40;99.90;;;;;;5026081;28;20119;-65
2023/12/04 08:29:17;;;;;;;5.18;3.28;;;0.50;99.90;;;;;;5027834;28;20483;-65
2023/12/04 08:31:43;;;;;;;10.30;5.60;;;0.40;99.90;;;;;;5014734;28;20521;-65
2023/12/04 08:34:09;;;;;;;12.40;5.53;;;0.50;99.90;;;;;;5025386;28;20049;-65
2023/12/04 08:36:35;;;;;;;8.18;4.38;;;0.50;99.90;;;;;;5018501;28;20122;-65
2023/12/04 08:39:01;;;;;;;6.35;4.32;;;0.50;99.90;;;;;;5012948;28;20073;-65
2023/12/04 08:41:28;;;;;;;12.10;6.10;;;0.60;99.90;;;;;;5024025;28;20049;-65
2023/12/04 08:43:54;;;;;;;7.40;4.55;;;0.60;99.90;;;;;;5007933;28;20085;-65
2023/12/04 08:46:20;;;;;;;8.88;4.97;;;0.60;99.90;;;;;;5007214;28;20041;-65
2023/12/04 08:48:46;;;;;;;5.53;3.95;;;0.60;99.90;;;;;;4991833;28;20033;-65
2023/12/04 08:51:18;;;;;;;13.43;5.60;;;0.60;99.90;;;;;;5028376;28;20119;-65
2023/12/04 08:53:44;;;;;;;10.30;5.90;;;0.60;99.90;;;;;;5006949;28;20049;-65
2023/12/04 08:56:10;;;;;;;4.63;3.53;;;0.70;99.90;;;;;;5027081;28;20053;-65
2023/12/04 08:58:37;;;;;;;10.02;5.30;;;0.70;99.90;;;;;;5008311;28;20498;-65
2023/12/04 09:01:03;;;;;;;6.68;4.50;;;0.70;99.90;;;;;;5009756;28;20049;-65
2023/12/04 09:03:31;;;;;;;12.55;6.15;;;0.70;99.90;;;;;;5028047;28;20047;-65
2023/12/04 09:05:57;;;;;;;5.15;4.03;;;0.70;99.90;;;;;;5008711;28;20049;-65
2023/12/04 09:08:26;;;;;;;9.50;4.55;;;0.70;99.90;;;;;;5027095;28;20041;-65
2023/12/04 09:10:52;;;;;;;12.85;6.97;;;0.70;99.90;;;;;;5009613;28;20060;-65
2023/12/04 09:13:17;;;;;;;15.23;6.80;;;0.70;99.90;;;;;;5009197;28;20049;-65
2023/12/04 09:15:43;;;;;;;10.60;6.32;;;0.70;99.90;;;;;;5009062;28;20405;-65
2023/12/04 09:18:09;;;;;;;16.27;5.70;;;0.80;99.90;;;;;;5012877;28;20539;-65
2023/12/04 09:20:35;;;;;;;14.95;7.32;;;0.80;99.90;;;;;;5014895;28;20077;-65
2023/12/04 09:23:01;;;;;;;13.63;6.82;;;0.80;99.90;;;;;;5010255;28;20034;-65
2023/12/04 09:25:27;;;;;;;11.55;6.20;;;0.80;99.90;;;;;;5012122;28;20544;-65
2023/12/04 09:27:53;;;;;;;7.80;5.72;;;0.80;99.90;;;;;;5006308;28;20056;-65
2023/12/04 09:30:19;;;;;;;8.77;5.40;;;0.80;99.90;;;;;;4991705;28;20045;-65
2023/12/04 09:32:44;;;;;;;10.00;5.18;;;0.80;99.90;;;;;;5009931;28;20134;-65
2023/12/04 09:35:11;;;;;;;9.38;5.28;;;0.90;99.90;;;;;;5002027;28;20053;-65
2023/12/04 09:37:36;;;;;;;8.98;5.32;;;0.90;99.90;;;;;;5027959;28;20041;-65
2023/12/04 09:40:02;;;;;;;6.18;3.55;;;0.80;99.90;;;;;;5003673;28;20045;-65
2023/12/04 09:42:30;;;;;;;6.82;5.03;;;0.90;99.90;;;;;;5026613;28;20053;-65
2023/12/04 09:44:58;;;;;;;10.18;4.70;;;0.90;99.90;;;;;;5008067;28;20071;-65
2023/12/04 09:47:24;;;;;;;15.48;7.05;;;0.90;99.90;;;;;;4996247;28;20057;-65
2023/12/04 09:49:52;;;;;;;14.40;6.65;;;1.00;99.90;;;;;;5002325;28;20062;-65
2023/12/04 09:52:19;;;;;;;10.35;6.32;;;0.90;99.90;;;;;;5014205;28;20053;-65
2023/12/04 09:54:45;;;;;;;13.48;7.10;;;1.00;99.90;;;;;;4993600;28;20062;-65
2023/12/04 09:57:12;;;;;;;8.63;5.20;;;1.00;99.90;;;;;;5024442;28;20033;-65
2023/12/04 09:59:39;;;;;;;8.15;5.07;;;1.00;99.90;;;;;;5007806;28;20073;-65
2023/12/04 10:02:06;;;;;;;9.23;6.07;;;1.00;99.90;;;;;;5026579;28;20038;-65
2023/12/04 10:04:34;;;;;;;8.68;4.95;;;1.00;99.90;;;;;;5006533;28;20543;-65
2023/12/04 10:06:59;;;;;;;16.27;7.38;;;1.00;99.90;;;;;;5014037;28;20466;-65
2023/12/04 10:09:25;;;;;;;11.60;5.90;;;1.10;99.90;;;;;;5008166;28;20128;-65
2023/12/04 10:11:51;;;;;;;12.73;5.78;;;1.10;99.90;;;;;;5008631;28;20049;-65
2023/12/04 10:14:21;;;;;;;8.45;5.15;;;1.10;99.90;;;;;;5006898;28;20041;-65
2023/12/04 10:16:48;;;;;;;12.63;7.30;;;1.10;99.90;;;;;;5036210;28;20660;-65
2023/12/04 10:19:26;;;;;;;7.07;4.85;;;1.10;99.90;;;;;;5002944;28;20060;-65
2023/12/04 10:21:53;;;;;;;9.65;5.78;;;1.10;99.90;;;;;;4996102;28;20048;-65
2023/12/04 10:24:35;;;;;;;10.75;6.03;;;1.10;99.90;;;;;;4997996;28;20038;-65
2023/12/04 10:27:01;;;;;;;11.18;5.95;;;1.10;99.90;;;;;;4998484;28;20126;-65
2023/12/04 10:29:30;;;;;;;3.75;3.20;;;1.20;99.90;;;;;;4995833;28;20406;-65
2023/12/04 10:31:59;;;;;;;4.45;3.38;;;1.20;99.90;;;;;;5007966;28;20440;-65
2023/12/04 10:34:26;;;;;;;11.10;5.53;;;1.20;99.90;;;;;;5024936;28;20041;-65
2023/12/04 10:36:52;;;;;;;12.15;7.13;;;1.30;99.90;;;;;;5007995;28;20123;-65
2023/12/04 10:39:17;;;;;;;12.00;6.35;;;1.30;99.90;;;;;;5025318;28;20073;-64
2023/12/04 10:41:44;;;;;;;16.35;7.38;;;1.30;99.90;;;;;;5008403;28;20077;-65
2023/12/04 10:44:15;;;;;;;11.10;6.22;;;1.30;99.90;;;;;;5007353;28;20144;-65
2023/12/04 10:46:43;;;;;;;9.77;5.90;;;1.40;99.90;;;;;;5005937;28;20049;-65
2023/12/04 10:49:10;;;;;;;14.63;6.03;;;1.40;99.90;;;;;;5002882;28;20058;-65
2023/12/04 10:51:38;;;;;;;10.93;6.18;;;1.40;99.90;;;;;;5006740;28;20425;-65
2023/12/04 10:54:05;;;;;;;11.38;5.75;;;1.40;99.90;;;;;;5024238;28;20123;-65
2023/12/04 10:56:40;;;;;;;13.77;5.45;;;1.40;99.90;;;;;;5026320;28;20058;-65
2023/12/04 10:59:15;;;;;;;12.82;6.45;;;1.40;99.90;;;;;;5005420;28;20104;-65
2023/12/04 11:01:45;;;;;;;11.63;5.68;;;1.40;99.90;;;;;;5006587;28;20567;-65
2023/12/04 11:04:17;;;;;;;10.32;5.57;;;1.40;99.90;;;;;;4990538;28;20029;-65
2023/12/04 11:06:49;;;;;;;9.95;5.88;;;1.40;99.90;;;;;;5029419;28;20112;-65
2023/12/04 11:09:18;;;;;;;13.18;5.90;;;1.30;99.90;;;;;;5023101;28;20046;-65
2023/12/04 11:11:50;;;;;;;7.43;3.53;;;1.40;99.90;;;;;;5002297;28;20483;-65
2023/12/04 11:14:22;;;;;;;8.15;5.55;;;1.40;99.90;;;;;;5025481;28;20050;-65
2023/12/04 11:16:54;;;;;;;10.43;5.85;;;1.40;99.90;;;;;;5002375;28;20053;-65
2023/12/04 11:19:43;;;;;;;9.63;5.40;;;1.40;99.90;;;;;;5002744;28;20037;-65
2023/12/04 11:22:09;;;;;;;13.98;6.72;;;1.40;99.90;;;;;;5009498;28;20049;-65
2023/12/04 11:24:36;;;;;;;14.25;6.53;;;1.40;99.90;;;;;;5022011;28;20041;-65
2023/12/04 11:27:03;;;;;;;9.80;4.78;;;1.40;99.90;;;;;;5019548;28;20045;-65
2023/12/04 11:29:29;;;;;;;6.63;4.10;;;1.40;99.90;;;;;;5025386;28;20064;-65
2023/12/04 11:31:55;;;;;;;18.10;4.28;;;1.50;99.90;;;;;;5021679;28;20088;-65
2023/12/04 11:34:24;;;;;;;11.98;6.72;;;1.50;99.90;;;;;;5041959;28;20095;-65
2023/12/04 11:36:51;;;;;;;11.55;5.50;;;1.60;99.90;;;;;;5007863;28;20050;-65
2023/12/04 11:39:19;;;;;;;12.07;6.40;;;1.60;99.90;;;;;;5005342;28;20041;-65
2023/12/04 11:41:45;;;;;;;11.18;5.50;;;1.60;99.90;;;;;;5015095;28;20125;-65
2023/12/04 11:44:14;;;;;;;8.60;4.88;;;1.60;99.90;;;;;;5022155;28;20440;-66
2023/12/04 11:46:56;;;;;;;10.50;6.00;;;1.70;99.90;;;;;;5007575;28;20100;-66
2023/12/04 11:49:25;;;;;;;10.90;5.55;;;1.70;99.90;;;;;;4988453;28;20056;-66
2023/12/04 11:51:52;;;;;;;7.72;4.45;;;1.70;99.90;;;;;;5023934;28;20516;-66
2023/12/04 11:54:19;;;;;;;7.88;3.05;;;1.70;99.90;;;;;;5004069;28;20062;-66
2023/12/04 11:57:01;;;;;;;11.18;6.28;;;1.70;99.90;;;;;;5008714;28;20115;-66
2023/12/04 11:59:27;;;;;;;6.00;4.07;;;1.80;99.90;;;;;;5014212;28;20135;-66
2023/12/04 12:01:58;;;;;;;7.97;3.97;;;1.80;99.90;;;;;;4994903;28;20129;-66
2023/12/04 12:04:25;;;;;;;9.57;5.30;;;1.80;99.90;;;;;;5009650;28;20060;-66
2023/12/04 12:06:52;;;;;;;7.38;3.78;;;1.80;99.90;;;;;;5011683;28;20065;-66
2023/12/04 12:09:18;;;;;;;8.50;5.15;;;1.80;99.90;;;;;;5010900;28;20613;-66
2023/12/04 12:11:45;;;;;;;9.27;6.07;;;1.80;99.90;;;;;;5028946;28;20037;-66
2023/12/04 12:14:10;;;;;;;6.47;3.58;;;1.80;99.90;;;;;;5010637;28;20562;-66
2023/12/04 12:16:36;;;;;;;10.27;6.22;;;1.80;99.90;;;;;;5009853;28;20050;-66
2023/12/04 12:19:02;;;;;;;3.42;2.55;;;1.80;99.90;;;;;;5008474;28;20134;-66
2023/12/04 12:21:28;;;;;;;7.50;4.95;;;1.70;99.90;;;;;;5010323;28;20034;-66
2023/12/04 12:23:54;;;;;;;3.28;2.97;;;1.70;99.90;;;;;;5010024;28;20049;-66
2023/12/04 12:26:20;;;;;;;8.45;5.00;;;1.70;99.90;;;;;;4998315;28;20167;-66
2023/12/04 12:28:46;;;;;;;8.93;4.65;;;1.70;99.90;;;;;;5016027;28;20128;-66
2023/12/04 12:31:11;;;;;;;12.27;5.70;;;1.70;99.90;;;;;;4995643;28;20123;-66
2023/12/04 12:37:18;;;;;;;4.22;2.70;;;1.70;99.90;;;;;;5080493;23;20056;-71
2023/12/04 12:39:45;;;;;;;10.95;5.40;;;1.70;99.90;;;;;;5008873;28;20061;-71
2023/12/04 12:42:11;;;;;;;6.63;4.55;;;1.70;99.90;;;;;;5012422;28;20164;-71
2023/12/04 12:44:40;;;;;;;6.43;2.95;;;1.70;99.90;;;;;;4995376;28;20124;-71
2023/12/04 12:47:10;;;;;;;7.80;5.05;;;1.60;99.90;;;;;;5014857;28;20456;-71
2023/12/04 12:49:36;;;;;;;5.47;2.60;;;1.70;99.90;;;;;;5011527;28;20413;-70